Time;durP1;ratioP1;P1;durP2;ratioP2;P2;SDS_P1;SDS_P2;PMS_P1;PMS_P2;Temp;Humidity;BMP_temperature;BMP_pressure;BME280_temperature;BME280_humidity;BME280_pressure;Samples;Min_cycle;Max_cycle;Signal;HPM_P1;HPM_P2
2023/06/05 00:00:31;;;;;;;3.92;3.05;;;25.70;38.90;;;;;;5065655;28;45369;-72
2023/06/05 00:02:58;;;;;;;3.53;3.17;;;25.70;39.10;;;;;;5065270;28;45419;-72
2023/06/05 00:05:27;;;;;;;4.30;3.10;;;25.70;39.10;;;;;;5065059;28;47518;-71
2023/06/05 00:07:54;;;;;;;4.00;3.25;;;25.70;39.10;;;;;;5065262;28;45245;-72
2023/06/05 00:10:20;;;;;;;4.78;3.20;;;25.60;39.10;;;;;;5065349;28;45301;-72
2023/06/05 00:12:47;;;;;;;3.35;3.03;;;25.60;39.00;;;;;;5065377;28;45463;-72
2023/06/05 00:15:14;;;;;;;3.55;3.25;;;25.60;39.00;;;;;;5065064;28;45410;-71
2023/06/05 00:17:44;;;;;;;3.75;3.30;;;25.60;39.80;;;;;;5065067;28;45305;-72
2023/06/05 00:20:11;;;;;;;3.13;2.80;;;25.60;39.10;;;;;;5065156;28;45285;-72
2023/06/05 00:22:38;;;;;;;3.70;3.33;;;25.50;39.10;;;;;;5065389;28;45410;-72
2023/06/05 00:25:06;;;;;;;4.45;3.72;;;25.50;39.20;;;;;;5064880;28;45610;-72
2023/06/05 00:27:33;;;;;;;3.50;3.20;;;25.50;39.20;;;;;;5064924;28;45324;-72
2023/06/05 00:30:00;;;;;;;3.65;3.00;;;25.40;39.20;;;;;;5068420;28;45242;-72
2023/06/05 00:32:27;;;;;;;3.40;3.10;;;25.40;39.20;;;;;;5068691;28;45550;-72
2023/06/05 00:34:55;;;;;;;4.03;3.28;;;25.40;39.20;;;;;;5068377;28;46605;-72
2023/06/05 00:37:22;;;;;;;4.40;3.28;;;25.30;39.30;;;;;;5068273;28;45322;-72
2023/06/05 00:39:49;;;;;;;4.10;3.38;;;25.30;39.20;;;;;;5068574;28;45261;-72
2023/06/05 00:42:16;;;;;;;3.30;3.00;;;25.30;39.40;;;;;;5068819;28;45320;-72
2023/06/05 00:44:43;;;;;;;4.45;3.10;;;25.30;39.40;;;;;;5068117;28;46429;-72
2023/06/05 00:47:09;;;;;;;3.70;3.30;;;25.20;39.30;;;;;;5068200;28;45454;-72
2023/06/05 00:49:36;;;;;;;6.18;3.15;;;25.20;39.40;;;;;;5068410;28;45263;-72
2023/06/05 00:52:05;;;;;;;3.30;3.00;;;25.10;40.00;;;;;;5068560;28;45165;-72
2023/06/05 00:54:32;;;;;;;4.60;3.33;;;25.20;40.10;;;;;;5068142;28;47589;-72
2023/06/05 00:56:59;;;;;;;4.75;2.95;;;25.10;39.40;;;;;;5067960;28;45341;-72
2023/06/05 00:59:26;;;;;;;3.47;2.80;;;25.10;39.40;;;;;;5068264;28;45339;-72
2023/06/05 01:01:54;;;;;;;3.72;3.30;;;25.10;39.50;;;;;;5068250;28;45244;-72
2023/06/05 01:04:23;;;;;;;3.28;3.08;;;25.00;39.40;;;;;;5067844;28;45195;-72
2023/06/05 01:06:51;;;;;;;6.55;2.95;;;25.00;39.50;;;;;;5067677;28;45329;-72
2023/06/05 01:09:19;;;;;;;3.50;3.17;;;25.00;39.40;;;;;;5068050;28;45261;-72
2023/06/05 01:11:51;;;;;;;4.22;2.80;;;25.00;39.60;;;;;;5068182;28;45236;-72
2023/06/05 01:14:22;;;;;;;3.00;2.70;;;24.90;39.50;;;;;;5067787;28;45636;-72
2023/06/05 01:16:50;;;;;;;2.55;2.30;;;24.90;39.50;;;;;;5067871;28;45394;-72
2023/06/05 01:19:17;;;;;;;4.30;3.10;;;24.90;39.60;;;;;;5068222;28;45274;-72
2023/06/05 01:21:44;;;;;;;2.95;2.65;;;24.90;39.60;;;;;;5068052;28;45411;-72
2023/06/05 01:24:15;;;;;;;3.67;2.83;;;24.80;39.50;;;;;;5067485;28;46667;-72
2023/06/05 01:26:52;;;;;;;3.55;3.10;;;24.80;39.60;;;;;;5067428;28;45257;-71
2023/06/05 01:29:20;;;;;;;3.65;2.85;;;24.80;39.60;;;;;;5067768;28;45257;-72
2023/06/05 01:31:47;;;;;;;4.68;2.75;;;24.70;39.60;;;;;;5067609;28;45476;-72
2023/06/05 01:34:19;;;;;;;2.78;2.58;;;24.80;39.70;;;;;;5067496;28;45371;-72
2023/06/05 01:36:46;;;;;;;3.60;2.90;;;24.70;39.60;;;;;;5067265;28;45403;-72
2023/06/05 01:39:14;;;;;;;3.45;3.15;;;24.70;39.60;;;;;;5064287;28;45240;-71
2023/06/05 01:41:41;;;;;;;2.95;2.65;;;24.70;39.70;;;;;;5067708;28;45431;-72
2023/06/05 01:44:08;;;;;;;2.65;2.45;;;24.60;39.60;;;;;;5067264;28;45550;-72
2023/06/05 01:46:35;;;;;;;3.85;3.13;;;24.60;39.60;;;;;;5067281;28;45332;-72
2023/06/05 01:49:02;;;;;;;3.00;2.70;;;24.60;39.60;;;;;;5067504;28;45429;-72
2023/06/05 01:51:29;;;;;;;3.72;2.55;;;24.60;39.60;;;;;;5067575;28;45320;-71
2023/06/05 01:53:57;;;;;;;2.92;2.72;;;24.50;39.60;;;;;;5067145;28;45421;-72
2023/06/05 01:56:25;;;;;;;2.65;2.45;;;24.50;39.60;;;;;;5067154;28;45470;-72
2023/06/05 01:58:53;;;;;;;3.80;3.03;;;24.50;39.70;;;;;;5067269;28;45410;-72
2023/06/05 02:01:22;;;;;;;3.35;2.63;;;24.50;39.70;;;;;;5067463;28;45527;-72
2023/06/05 02:03:49;;;;;;;3.00;2.80;;;24.50;39.70;;;;;;5066442;28;45647;-72
2023/06/05 02:06:16;;;;;;;3.47;2.72;;;24.50;39.70;;;;;;5066956;28;45424;-72
2023/06/05 02:08:43;;;;;;;2.92;2.63;;;24.50;39.70;;;;;;5067106;28;45518;-72
2023/06/05 02:11:11;;;;;;;3.20;2.80;;;24.40;39.60;;;;;;5067199;28;45428;-72
2023/06/05 02:13:40;;;;;;;2.60;2.40;;;24.40;39.60;;;;;;5066748;28;45272;-72
2023/06/05 02:16:10;;;;;;;2.85;2.63;;;24.40;39.70;;;;;;5066818;28;45330;-72
2023/06/05 02:18:37;;;;;;;2.70;2.50;;;24.40;39.60;;;;;;5066965;28;45304;-72
2023/06/05 02:21:04;;;;;;;2.83;2.42;;;24.30;39.50;;;;;;5067075;28;45344;-72
2023/06/05 02:23:31;;;;;;;2.95;2.30;;;24.30;40.20;;;;;;5066723;28;45257;-72
2023/06/05 02:25:58;;;;;;;2.78;2.38;;;24.30;39.60;;;;;;5066537;28;45479;-72
2023/06/05 02:28:26;;;;;;;2.67;2.47;;;24.30;39.60;;;;;;5067026;28;45383;-72
2023/06/05 02:30:55;;;;;;;2.97;2.47;;;24.30;39.70;;;;;;5066937;28;45403;-71
2023/06/05 02:33:22;;;;;;;2.80;2.50;;;24.20;39.60;;;;;;5066324;28;45489;-71
2023/06/05 02:35:49;;;;;;;2.88;2.50;;;24.20;39.50;;;;;;5066377;28;45360;-72
2023/06/05 02:38:16;;;;;;;3.20;2.40;;;24.20;39.60;;;;;;5066723;28;45353;-72
2023/06/05 02:40:43;;;;;;;3.92;2.83;;;24.10;39.60;;;;;;5066562;28;45292;-72
2023/06/05 02:43:11;;;;;;;3.20;2.40;;;24.20;39.70;;;;;;5066244;28;46403;-72
2023/06/05 02:45:38;;;;;;;2.30;2.10;;;24.10;39.60;;;;;;5066323;28;45494;-72
2023/06/05 02:48:06;;;;;;;2.42;2.20;;;24.10;39.70;;;;;;5066690;28;45440;-71
2023/06/05 02:50:33;;;;;;;2.58;2.38;;;24.10;39.60;;;;;;5065745;28;45272;-71
2023/06/05 02:53:00;;;;;;;2.25;2.05;;;24.10;39.70;;;;;;5065766;28;46716;-72
2023/06/05 02:55:29;;;;;;;3.20;2.20;;;24.00;39.60;;;;;;5066179;28;45367;-72
2023/06/05 02:57:57;;;;;;;2.67;2.35;;;24.00;39.60;;;;;;5066298;28;45363;-72
2023/06/05 03:00:25;;;;;;;2.60;2.00;;;24.00;39.60;;;;;;5066354;28;45303;-71
2023/06/05 03:02:52;;;;;;;4.20;2.38;;;24.00;39.80;;;;;;5064316;28;46571;-72
2023/06/05 03:05:24;;;;;;;2.30;2.20;;;23.90;39.70;;;;;;5066037;28;45589;-72
2023/06/05 03:07:52;;;;;;;2.78;2.15;;;23.90;39.70;;;;;;5066253;27;45339;-72
2023/06/05 03:10:20;;;;;;;2.65;2.42;;;23.90;39.60;;;;;;5066322;28;45383;-72
2023/06/05 03:12:47;;;;;;;2.95;2.38;;;23.90;39.70;;;;;;5066115;28;47334;-72
2023/06/05 03:15:16;;;;;;;3.15;2.50;;;23.80;39.70;;;;;;5065937;28;45421;-72
2023/06/05 03:17:43;;;;;;;4.18;2.50;;;23.80;39.70;;;;;;5065933;28;45403;-72
2023/06/05 03:20:10;;;;;;;2.47;2.28;;;23.80;39.70;;;;;;5066045;28;45508;-71
2023/06/05 03:22:39;;;;;;;5.47;2.50;;;23.80;39.60;;;;;;5065751;28;46395;-72
2023/06/05 03:25:08;;;;;;;2.65;2.22;;;23.80;39.70;;;;;;5065783;28;45281;-72
2023/06/05 03:27:35;;;;;;;2.55;2.28;;;23.70;39.70;;;;;;5065843;28;45646;-72
2023/06/05 03:30:01;;;;;;;2.97;2.20;;;23.70;39.70;;;;;;5066152;28;45297;-72
2023/06/05 03:32:28;;;;;;;2.38;2.17;;;23.70;39.70;;;;;;5065541;28;45569;-72
2023/06/05 03:34:55;;;;;;;1.80;1.70;;;23.70;39.80;;;;;;5065601;28;45274;-71
2023/06/05 03:37:22;;;;;;;2.38;2.17;;;23.60;39.70;;;;;;5065591;28;45285;-72
2023/06/05 03:39:50;;;;;;;3.83;2.30;;;23.60;39.80;;;;;;5065971;28;45571;-72
2023/06/05 03:42:17;;;;;;;3.28;2.28;;;23.60;39.70;;;;;;5065446;28;46765;-72
2023/06/05 03:44:44;;;;;;;2.20;2.00;;;23.60;39.80;;;;;;5065396;28;45191;-71
2023/06/05 03:47:14;;;;;;;3.92;2.30;;;23.60;39.80;;;;;;5065583;28;45300;-71
2023/06/05 03:49:47;;;;;;;2.15;1.98;;;23.50;39.80;;;;;;5063009;28;45266;-75
2023/06/05 03:52:14;;;;;;;2.55;2.30;;;23.60;39.80;;;;;;5065459;28;46625;-71
2023/06/05 03:54:44;;;;;;;2.42;2.22;;;23.50;39.80;;;;;;5065263;28;45386;-70
2023/06/05 03:57:14;;;;;;;2.50;2.10;;;23.50;39.80;;;;;;5065589;28;45406;-71
2023/06/05 03:59:41;;;;;;;2.88;2.00;;;23.50;39.70;;;;;;5065569;28;45544;-72
2023/06/05 04:02:08;;;;;;;2.30;2.10;;;23.50;39.80;;;;;;5064851;28;46341;-71
2023/06/05 04:04:35;;;;;;;2.42;2.00;;;23.40;39.80;;;;;;5065434;28;45349;-71
2023/06/05 04:07:02;;;;;;;4.18;2.30;;;23.40;39.80;;;;;;5065118;28;45348;-72
2023/06/05 04:09:29;;;;;;;3.13;2.40;;;23.40;39.90;;;;;;5065583;28;45337;-73
2023/06/05 04:11:56;;;;;;;2.10;1.90;;;23.40;39.80;;;;;;5065070;28;45634;-72
2023/06/05 04:14:24;;;;;;;2.25;2.08;;;23.40;39.90;;;;;;5065240;28;45383;-70
2023/06/05 04:16:51;;;;;;;2.13;1.92;;;23.40;39.90;;;;;;5065175;28;45273;-71
2023/06/05 04:19:17;;;;;;;2.15;1.95;;;23.30;39.80;;;;;;5065432;28;45344;-72
2023/06/05 04:21:44;;;;;;;2.20;2.00;;;23.30;39.90;;;;;;5062451;28;46161;-72
2023/06/05 04:24:11;;;;;;;3.20;2.35;;;23.30;39.90;;;;;;5065152;28;45446;-72
2023/06/05 04:26:38;;;;;;;2.67;1.73;;;23.30;39.80;;;;;;5065173;28;45332;-73
2023/06/05 04:29:09;;;;;;;1.92;1.83;;;23.30;39.90;;;;;;5065318;28;45329;-72
2023/06/05 04:31:40;;;;;;;2.00;1.90;;;23.30;39.90;;;;;;5064780;28;45312;-72
2023/06/05 04:34:08;;;;;;;2.25;1.92;;;23.30;39.90;;;;;;5064840;28;45336;-72
2023/06/05 04:36:36;;;;;;;2.30;2.10;;;23.30;39.90;;;;;;5064980;28;45301;-72
2023/06/05 04:39:03;;;;;;;2.08;1.88;;;23.30;39.90;;;;;;5065141;28;45379;-72
2023/06/05 04:41:32;;;;;;;2.35;2.08;;;23.30;39.90;;;;;;5064649;28;46404;-71
2023/06/05 04:43:59;;;;;;;2.65;2.00;;;23.30;39.90;;;;;;5064872;28;45257;-73
2023/06/05 04:46:26;;;;;;;2.00;1.80;;;23.30;39.90;;;;;;5064757;28;45391;-73
2023/06/05 04:48:57;;;;;;;1.73;1.50;;;23.20;39.90;;;;;;5065004;28;45368;-72
2023/06/05 04:51:24;;;;;;;2.95;2.10;;;23.20;39.80;;;;;;5064421;28;48075;-70
2023/06/05 04:53:52;;;;;;;2.20;2.00;;;23.20;39.90;;;;;;5064786;28;45399;-72
2023/06/05 04:56:20;;;;;;;2.05;1.90;;;23.20;39.90;;;;;;5064872;28;45396;-73
2023/06/05 04:58:50;;;;;;;2.33;2.13;;;23.20;39.90;;;;;;5064748;28;45649;-72
2023/06/05 05:01:17;;;;;;;1.80;1.70;;;23.20;40.00;;;;;;5064662;28;45424;-72
2023/06/05 05:03:45;;;;;;;2.28;2.08;;;23.20;39.90;;;;;;5064141;28;45468;-72
2023/06/05 05:06:16;;;;;;;2.00;1.90;;;23.20;39.90;;;;;;5064543;28;45218;-72
2023/06/05 05:08:44;;;;;;;1.95;1.77;;;23.20;40.00;;;;;;5064709;28;45367;-72
2023/06/05 05:11:12;;;;;;;2.38;1.70;;;23.20;39.90;;;;;;5064187;28;45360;-72
2023/06/05 05:13:38;;;;;;;2.35;2.10;;;23.20;39.90;;;;;;5064499;28;45358;-72
2023/06/05 05:16:07;;;;;;;2.88;1.98;;;23.20;39.90;;;;;;5067711;28;45394;-72
2023/06/05 05:18:34;;;;;;;1.83;1.70;;;23.20;40.00;;;;;;5068096;28;45391;-72
2023/06/05 05:21:01;;;;;;;2.05;1.85;;;23.20;40.00;;;;;;5067578;28;46851;-72
2023/06/05 05:23:29;;;;;;;4.20;1.98;;;23.20;39.90;;;;;;5067688;28;45343;-72
2023/06/05 05:25:56;;;;;;;1.85;1.75;;;23.20;40.00;;;;;;5067756;28;45261;-72
2023/06/05 05:28:23;;;;;;;1.98;1.88;;;23.10;39.80;;;;;;5067788;28;45361;-72
2023/06/05 05:30:50;;;;;;;2.03;1.83;;;23.10;39.80;;;;;;5067721;28;45328;-72
2023/06/05 05:33:16;;;;;;;1.70;1.60;;;23.10;40.50;;;;;;5067543;28;45380;-72
2023/06/05 05:35:43;;;;;;;2.38;1.83;;;23.10;39.90;;;;;;5067573;28;45345;-72
2023/06/05 05:38:10;;;;;;;1.80;1.70;;;23.10;39.90;;;;;;5067740;28;45396;-72
2023/06/05 05:40:38;;;;;;;2.10;1.90;;;23.10;39.90;;;;;;5067302;28;45390;-72
2023/06/05 05:43:05;;;;;;;1.80;1.70;;;23.10;39.90;;;;;;5067377;28;45266;-73
2023/06/05 05:45:32;;;;;;;2.30;2.10;;;23.10;39.90;;;;;;5067270;28;45472;-72
2023/06/05 05:47:59;;;;;;;1.83;1.73;;;23.10;39.90;;;;;;5067448;28;45539;-72
2023/06/05 05:50:25;;;;;;;2.15;1.95;;;23.10;39.90;;;;;;5067292;28;46372;-72
2023/06/05 05:52:53;;;;;;;2.33;1.80;;;23.10;39.90;;;;;;5067062;28;45327;-71
2023/06/05 05:55:19;;;;;;;1.90;1.77;;;23.10;40.00;;;;;;5067274;28;45589;-72
2023/06/05 05:57:48;;;;;;;2.60;1.90;;;23.10;39.90;;;;;;5066957;28;45496;-72
2023/06/05 06:00:15;;;;;;;2.78;2.13;;;23.10;39.90;;;;;;5066819;28;46734;-72
2023/06/05 06:02:43;;;;;;;2.40;2.05;;;23.10;40.00;;;;;;5066841;28;45398;-72
2023/06/05 06:05:12;;;;;;;1.70;1.60;;;23.10;40.00;;;;;;5067132;28;45465;-72
2023/06/05 06:07:40;;;;;;;1.85;1.75;;;23.10;40.00;;;;;;5067254;28;45320;-72
2023/06/05 06:10:09;;;;;;;2.50;1.90;;;23.10;40.00;;;;;;5066858;28;46420;-72
2023/06/05 06:12:36;;;;;;;2.03;1.75;;;23.20;40.00;;;;;;5066976;28;45355;-72
2023/06/05 06:15:05;;;;;;;2.40;2.20;;;23.20;40.00;;;;;;5066921;28;45178;-73
2023/06/05 06:17:32;;;;;;;2.13;1.75;;;23.20;40.60;;;;;;5067150;28;45322;-72
2023/06/05 06:19:58;;;;;;;2.85;1.70;;;23.20;40.10;;;;;;5066636;28;46999;-72
2023/06/05 06:22:26;;;;;;;2.33;1.92;;;23.20;40.10;;;;;;5066711;28;45272;-72
2023/06/05 06:24:53;;;;;;;2.10;1.90;;;23.20;40.10;;;;;;5066791;28;45274;-72
2023/06/05 06:27:21;;;;;;;2.00;1.80;;;23.20;40.10;;;;;;5066834;28;45356;-72
2023/06/05 06:29:48;;;;;;;3.33;1.80;;;23.20;40.00;;;;;;5066482;28;45452;-72
2023/06/05 06:32:17;;;;;;;2.25;2.00;;;23.20;40.10;;;;;;5066277;28;45335;-72
2023/06/05 06:34:44;;;;;;;1.65;1.55;;;23.20;40.00;;;;;;5066601;28;45279;-73
2023/06/05 06:37:14;;;;;;;1.70;1.60;;;23.20;40.00;;;;;;5066602;28;45408;-71
2023/06/05 06:39:41;;;;;;;1.85;1.63;;;23.20;40.00;;;;;;5066346;28;47660;-72
2023/06/05 06:42:09;;;;;;;2.00;1.80;;;23.30;40.00;;;;;;5063777;28;45333;-72
2023/06/05 06:44:36;;;;;;;1.85;1.63;;;23.30;40.00;;;;;;5066503;28;45372;-72
2023/06/05 06:47:03;;;;;;;2.75;1.90;;;23.30;40.00;;;;;;5066433;28;45359;-72
2023/06/05 06:49:31;;;;;;;1.90;1.80;;;23.30;40.00;;;;;;5066056;28;45397;-72
2023/06/05 06:51:58;;;;;;;2.17;1.92;;;23.30;40.00;;;;;;5066282;28;45318;-72
2023/06/05 06:54:26;;;;;;;2.30;2.10;;;23.30;40.00;;;;;;5066334;28;45155;-73
2023/06/05 06:56:53;;;;;;;2.22;2.03;;;23.40;40.00;;;;;;5066285;28;45422;-72
2023/06/05 06:59:20;;;;;;;1.52;1.42;;;23.30;39.90;;;;;;5065906;28;46672;-73
2023/06/05 07:01:47;;;;;;;1.95;1.80;;;23.40;40.00;;;;;;5066095;28;45379;-72
2023/06/05 07:04:16;;;;;;;2.10;1.90;;;23.40;40.60;;;;;;5066033;28;45243;-72
2023/06/05 07:06:45;;;;;;;1.75;1.65;;;23.40;39.90;;;;;;5066067;28;45569;-72
2023/06/05 07:09:12;;;;;;;1.95;1.65;;;23.40;39.90;;;;;;5065703;28;45468;-72
2023/06/05 07:11:38;;;;;;;2.40;1.80;;;23.50;40.00;;;;;;5065900;28;45320;-73
2023/06/05 07:14:05;;;;;;;1.90;1.80;;;23.50;39.90;;;;;;5066076;28;45272;-72
2023/06/05 07:16:32;;;;;;;1.90;1.60;;;23.50;40.00;;;;;;5063401;28;45325;-72
2023/06/05 07:18:59;;;;;;;3.47;1.80;;;23.50;39.90;;;;;;5065579;28;48374;-72
2023/06/05 07:21:26;;;;;;;2.72;1.90;;;23.50;39.90;;;;;;5065691;28;45432;-72
2023/06/05 07:23:55;;;;;;;1.95;1.85;;;23.50;39.90;;;;;;5066135;28;45321;-72
2023/06/05 07:26:23;;;;;;;1.92;1.73;;;23.50;39.90;;;;;;5065808;28;45309;-73
2023/06/05 07:28:50;;;;;;;2.50;2.00;;;23.60;39.90;;;;;;5065432;28;47716;-72
2023/06/05 07:31:17;;;;;;;2.13;1.75;;;23.60;39.90;;;;;;5065453;28;45272;-72
2023/06/05 07:33:44;;;;;;;2.00;1.80;;;23.60;39.90;;;;;;5065714;28;45324;-72
2023/06/05 07:36:11;;;;;;;2.60;1.90;;;23.60;39.90;;;;;;5065629;28;45445;-72
2023/06/05 07:38:39;;;;;;;3.47;2.10;;;23.60;39.90;;;;;;5064720;27;46289;-72
2023/06/05 07:41:07;;;;;;;2.45;1.90;;;23.60;39.90;;;;;;5065383;28;45402;-72
2023/06/05 07:43:34;;;;;;;1.95;1.75;;;23.60;39.90;;;;;;5065532;28;45314;-72
2023/06/05 07:46:01;;;;;;;2.65;2.00;;;23.60;39.90;;;;;;5065585;28;45440;-72
2023/06/05 07:48:27;;;;;;;1.90;1.80;;;23.60;39.90;;;;;;5065469;28;47655;-73
2023/06/05 07:50:54;;;;;;;2.08;1.90;;;23.70;39.90;;;;;;5065109;28;45416;-73
2023/06/05 07:53:22;;;;;;;1.90;1.70;;;23.70;39.90;;;;;;5065234;28;45289;-72
2023/06/05 07:55:50;;;;;;;1.85;1.73;;;23.70;39.90;;;;;;5065469;28;45246;-72
2023/06/05 07:58:18;;;;;;;2.17;2.00;;;23.70;39.90;;;;;;5065083;28;45447;-73
2023/06/05 08:00:47;;;;;;;5.15;1.85;;;23.70;39.90;;;;;;5065151;28;45474;-72
2023/06/05 08:03:19;;;;;;;1.85;1.70;;;23.80;39.90;;;;;;5064956;28;45263;-72
2023/06/05 08:05:47;;;;;;;3.08;1.58;;;23.80;39.90;;;;;;5065230;28;45349;-72
2023/06/05 08:08:14;;;;;;;2.83;1.75;;;23.80;39.80;;;;;;5064895;28;46465;-72
2023/06/05 08:10:41;;;;;;;3.45;2.10;;;23.80;39.80;;;;;;5064927;28;45447;-72
2023/06/05 08:13:08;;;;;;;2.22;2.03;;;23.80;39.70;;;;;;5065060;28;45323;-72
2023/06/05 08:15:36;;;;;;;2.13;1.83;;;23.80;39.70;;;;;;5065190;28;45366;-72
2023/06/05 08:18:03;;;;;;;2.53;2.13;;;23.90;39.80;;;;;;5064768;28;45290;-72
2023/06/05 08:20:30;;;;;;;2.58;2.38;;;23.90;39.80;;;;;;5064722;28;45269;-72
2023/06/05 08:22:58;;;;;;;3.35;2.28;;;23.90;39.80;;;;;;5065058;28;45313;-72
2023/06/05 08:25:24;;;;;;;5.05;2.40;;;23.90;39.80;;;;;;5065322;28;45387;-72
2023/06/05 08:27:51;;;;;;;3.25;2.75;;;24.00;40.00;;;;;;5064595;28;45484;-71
2023/06/05 08:30:18;;;;;;;3.65;2.58;;;24.00;40.00;;;;;;5064747;28;45245;-71
2023/06/05 08:32:46;;;;;;;3.97;2.58;;;24.00;40.00;;;;;;5064785;28;45323;-72
2023/06/05 08:35:13;;;;;;;4.53;2.42;;;24.00;40.10;;;;;;5065193;28;45531;-71
2023/06/05 08:37:40;;;;;;;2.90;2.60;;;24.10;40.20;;;;;;5064531;28;46640;-72
2023/06/05 08:40:10;;;;;;;3.80;2.55;;;24.10;40.20;;;;;;5064705;28;45397;-72
2023/06/05 08:42:37;;;;;;;2.60;2.40;;;24.10;40.30;;;;;;5064970;28;45442;-72
2023/06/05 08:45:05;;;;;;;3.60;2.80;;;24.10;40.00;;;;;;5064912;28;45639;-72
2023/06/05 08:47:32;;;;;;;2.92;2.60;;;24.20;40.10;;;;;;5064350;28;45356;-72
2023/06/05 08:50:03;;;;;;;4.35;3.00;;;24.20;39.90;;;;;;5066372;28;45284;-72
2023/06/05 08:52:30;;;;;;;3.03;2.70;;;24.20;39.90;;;;;;5068568;28;45359;-72
2023/06/05 08:54:57;;;;;;;3.42;2.50;;;24.20;40.00;;;;;;5068230;28;45395;-72
2023/06/05 08:57:24;;;;;;;2.75;2.50;;;24.30;40.00;;;;;;5067769;28;46546;-72
2023/06/05 08:59:51;;;;;;;4.30;2.97;;;24.30;40.00;;;;;;5067943;28;45289;-72
2023/06/05 09:02:17;;;;;;;2.58;2.38;;;24.40;40.00;;;;;;5067931;28;45386;-72
2023/06/05 09:04:44;;;;;;;3.08;2.60;;;24.40;40.00;;;;;;5068141;28;45432;-72
2023/06/05 09:07:13;;;;;;;3.65;2.63;;;24.40;39.80;;;;;;5067585;28;45414;-72
2023/06/05 09:09:39;;;;;;;4.18;2.88;;;24.40;40.00;;;;;;5067854;28;45310;-72
2023/06/05 09:12:07;;;;;;;3.95;2.97;;;24.50;40.00;;;;;;5067855;28;45269;-72
2023/06/05 09:14:35;;;;;;;5.25;3.00;;;24.50;40.00;;;;;;5067941;28;45477;-72
2023/06/05 09:17:02;;;;;;;4.75;2.97;;;24.50;40.10;;;;;;5067693;28;45369;-72
2023/06/05 09:19:36;;;;;;;3.72;2.72;;;24.60;40.20;;;;;;5067616;28;45304;-71
2023/06/05 09:22:05;;;;;;;4.90;2.72;;;24.60;41.00;;;;;;5067673;28;45240;-72
2023/06/05 09:24:34;;;;;;;3.00;2.67;;;24.60;40.50;;;;;;5067741;28;45238;-72
2023/06/05 09:27:01;;;;;;;6.47;3.10;;;24.70;40.80;;;;;;5067271;28;45305;-71
2023/06/05 09:29:29;;;;;;;5.25;2.75;;;24.70;40.90;;;;;;5067449;28;45329;-72
2023/06/05 09:31:57;;;;;;;6.43;2.97;;;24.70;40.60;;;;;;5067569;28;45335;-72
2023/06/05 09:34:28;;;;;;;5.65;2.47;;;24.70;40.70;;;;;;5067981;28;45395;-72
2023/06/05 09:36:57;;;;;;;3.30;2.58;;;24.70;40.60;;;;;;5067039;28;46303;-72
2023/06/05 09:39:26;;;;;;;7.63;2.95;;;24.80;40.80;;;;;;5064678;28;45960;-72
2023/06/05 09:41:54;;;;;;;3.90;2.50;;;24.80;41.00;;;;;;5067581;28;45420;-73
2023/06/05 09:44:21;;;;;;;4.60;2.30;;;24.90;41.50;;;;;;5067558;28;45514;-72
2023/06/05 09:46:55;;;;;;;5.25;2.60;;;24.90;41.60;;;;;;5064745;28;45395;-72
2023/06/05 09:49:25;;;;;;;5.00;2.80;;;25.00;41.80;;;;;;5067012;28;45283;-72
2023/06/05 09:51:51;;;;;;;3.45;2.42;;;25.00;41.70;;;;;;5064534;28;45391;-71
2023/06/05 09:54:18;;;;;;;5.18;2.25;;;25.00;41.90;;;;;;5067203;28;45321;-72
2023/06/05 09:56:51;;;;;;;4.28;2.67;;;25.10;42.20;;;;;;5066950;28;46433;-72
2023/06/05 09:59:21;;;;;;;6.93;2.22;;;25.10;42.40;;;;;;5081901;28;45334;-72
2023/06/05 10:01:49;;;;;;;3.38;2.42;;;25.20;42.60;;;;;;5066374;28;45425;-71
2023/06/05 10:04:16;;;;;;;5.93;2.30;;;25.20;42.70;;;;;;5067081;28;45399;-72
2023/06/05 10:06:43;;;;;;;3.53;2.15;;;25.30;42.60;;;;;;5066449;28;46291;-71
2023/06/05 10:09:11;;;;;;;4.20;2.33;;;25.30;42.50;;;;;;5066555;28;45357;-72
2023/06/05 10:11:38;;;;;;;2.97;2.38;;;25.40;42.40;;;;;;5066990;28;45391;-72
2023/06/05 10:14:05;;;;;;;3.25;2.35;;;25.30;42.10;;;;;;5066876;28;45353;-72
2023/06/05 10:16:33;;;;;;;5.93;2.20;;;25.40;41.90;;;;;;5066543;28;47603;-71
2023/06/05 10:19:00;;;;;;;4.55;2.30;;;25.40;41.80;;;;;;5066400;28;45268;-72
2023/06/05 10:21:27;;;;;;;3.03;2.15;;;25.40;42.20;;;;;;5066650;28;45460;-72
2023/06/05 10:23:56;;;;;;;3.67;2.28;;;25.50;42.50;;;;;;5066874;28;45383;-72
2023/06/05 10:26:53;;;;;;;6.25;2.53;;;25.50;42.00;;;;;;5066262;28;46406;-72
2023/06/05 10:29:34;;;;;;;2.40;2.20;;;25.60;42.20;;;;;;5050987;28;45420;-72
2023/06/05 10:32:03;;;;;;;2.30;2.00;;;25.60;42.20;;;;;;5066512;28;45373;-72
2023/06/05 10:34:37;;;;;;;6.55;2.38;;;25.60;42.20;;;;;;5066603;28;45246;-71
2023/06/05 10:37:31;;;;;;;3.38;1.95;;;25.70;42.60;;;;;;5066086;28;45357;-72
2023/06/05 10:39:57;;;;;;;3.65;2.13;;;25.70;42.90;;;;;;5066158;28;45493;-72
2023/06/05 10:42:25;;;;;;;6.10;2.33;;;25.80;43.00;;;;;;5066426;28;45296;-72
2023/06/05 10:44:52;;;;;;;4.18;2.20;;;25.90;42.70;;;;;;5066391;28;45309;-71
2023/06/05 10:47:52;;;;;;;6.65;2.35;;;26.00;42.70;;;;;;5066078;28;46604;-72
2023/06/05 10:50:25;;;;;;;3.25;2.30;;;26.00;42.50;;;;;;5066332;28;45372;-72
2023/06/05 10:52:52;;;;;;;6.53;2.63;;;26.00;42.60;;;;;;5066214;28;45368;-72
2023/06/05 10:55:19;;;;;;;6.38;3.22;;;26.10;42.90;;;;;;5066315;28;45249;-72
2023/06/05 10:58:09;;;;;;;6.45;3.95;;;26.10;42.70;;;;;;5065936;28;46544;-72
2023/06/05 11:00:36;;;;;;;4.68;4.18;;;26.10;42.70;;;;;;5066100;28;45430;-71
2023/06/05 11:03:05;;;;;;;6.65;4.68;;;26.20;43.50;;;;;;5066005;28;45482;-72
2023/06/05 11:05:32;;;;;;;8.75;6.20;;;26.30;42.70;;;;;;5066266;28;45283;-72
2023/06/05 11:08:14;;;;;;;10.80;5.47;;;26.30;42.50;;;;;;5065573;28;46406;-72
2023/06/05 11:11:05;;;;;;;7.68;6.03;;;26.50;42.40;;;;;;5065839;28;45376;-72
2023/06/05 11:13:55;;;;;;;12.40;7.10;;;26.50;42.30;;;;;;5051222;28;45303;-72
2023/06/05 11:16:32;;;;;;;9.25;7.10;;;26.50;41.80;;;;;;5066285;28;45548;-73
2023/06/05 11:19:39;;;;;;;14.07;7.55;;;26.60;42.00;;;;;;5065668;28;46406;-73
2023/06/05 11:22:08;;;;;;;14.77;8.60;;;26.70;41.60;;;;;;5058831;28;45403;-73
2023/06/05 11:24:35;;;;;;;12.27;7.20;;;26.70;41.30;;;;;;5065938;28;45338;-72
2023/06/05 11:27:03;;;;;;;12.30;7.55;;;26.80;41.20;;;;;;5065662;28;45410;-73
2023/06/05 11:29:30;;;;;;;19.80;7.57;;;26.90;41.20;;;;;;5065691;28;45767;-72
2023/06/05 11:31:57;;;;;;;10.00;5.65;;;26.90;40.80;;;;;;5065635;28;45437;-72
2023/06/05 11:34:23;;;;;;;12.00;6.05;;;27.00;40.70;;;;;;5065492;28;45432;-73
2023/06/05 11:36:52;;;;;;;11.50;5.97;;;27.10;40.40;;;;;;5065455;28;45398;-72
2023/06/05 11:39:19;;;;;;;12.90;5.25;;;27.10;40.20;;;;;;5063861;28;45774;-72
2023/06/05 11:41:50;;;;;;;8.00;5.13;;;27.20;40.10;;;;;;5068735;28;45332;-72
2023/06/05 11:44:17;;;;;;;7.97;4.88;;;27.30;39.90;;;;;;5065429;28;45344;-72
2023/06/05 11:46:44;;;;;;;8.98;4.82;;;27.30;39.70;;;;;;5065748;28;45364;-72
2023/06/05 11:49:23;;;;;;;7.65;4.80;;;27.40;39.60;;;;;;5065442;28;45329;-73
2023/06/05 11:51:51;;;;;;;6.43;4.05;;;27.50;39.40;;;;;;5065273;28;45291;-72
2023/06/05 11:54:25;;;;;;;4.93;3.90;;;27.60;39.10;;;;;;5065470;28;45340;-72
2023/06/05 11:56:56;;;;;;;4.93;3.65;;;27.70;39.10;;;;;;5065712;28;45299;-72
2023/06/05 11:59:24;;;;;;;5.47;3.63;;;27.70;38.90;;;;;;5065295;28;47488;-72
2023/06/05 12:01:54;;;;;;;6.45;3.90;;;27.80;38.80;;;;;;5065317;28;45336;-72
2023/06/05 12:04:21;;;;;;;6.05;3.33;;;27.80;38.60;;;;;;5065272;28;45413;-72
2023/06/05 12:06:48;;;;;;;4.90;3.17;;;27.90;38.40;;;;;;5056592;28;45431;-71
2023/06/05 12:09:16;;;;;;;6.00;3.33;;;28.00;38.30;;;;;;5061243;28;47562;-72
2023/06/05 12:11:44;;;;;;;6.80;3.08;;;28.10;38.10;;;;;;5063415;28;45407;-72
2023/06/05 12:14:11;;;;;;;4.68;2.80;;;28.10;37.90;;;;;;5064898;28;45308;-72
2023/06/05 12:16:39;;;;;;;3.03;2.70;;;28.10;37.80;;;;;;5062849;28;45566;-71
2023/06/05 12:19:12;;;;;;;4.90;2.90;;;28.20;37.70;;;;;;5064553;28;45543;-72
2023/06/05 12:21:39;;;;;;;4.72;2.70;;;28.30;37.70;;;;;;5064862;28;45426;-72
2023/06/05 12:24:06;;;;;;;4.43;2.80;;;28.40;37.50;;;;;;5066944;28;45327;-73
2023/06/05 12:26:53;;;;;;;3.65;2.60;;;28.40;37.30;;;;;;5068603;28;45408;-73
2023/06/05 12:29:20;;;;;;;3.13;2.55;;;28.50;37.20;;;;;;5067613;28;45412;-73
2023/06/05 12:31:47;;;;;;;5.57;2.80;;;28.50;37.10;;;;;;5068271;28;45462;-72
2023/06/05 12:34:15;;;;;;;2.85;2.65;;;28.60;37.00;;;;;;5068546;28;45336;-73
2023/06/05 12:36:42;;;;;;;6.88;2.80;;;28.70;36.90;;;;;;5064643;28;45485;-72
2023/06/05 12:39:11;;;;;;;4.78;2.60;;;28.70;36.90;;;;;;5065049;28;45513;-73
2023/06/05 12:41:37;;;;;;;4.82;2.47;;;28.80;36.80;;;;;;5067116;28;45454;-73
2023/06/05 12:44:06;;;;;;;2.72;2.50;;;28.90;36.70;;;;;;5067371;28;45477;-72
2023/06/05 12:46:33;;;;;;;2.85;2.50;;;28.90;36.50;;;;;;5072425;28;45429;-72
2023/06/05 12:49:00;;;;;;;4.28;2.70;;;29.00;36.50;;;;;;5064939;28;45541;-73
2023/06/05 12:51:27;;;;;;;3.17;2.50;;;29.00;36.30;;;;;;5067169;28;45291;-72